Time;durP1;ratioP1;P1;durP2;ratioP2;P2;SDS_P1;SDS_P2;PMS_P1;PMS_P2;Temp;Humidity;BMP_temperature;BMP_pressure;BME280_temperature;BME280_humidity;BME280_pressure;Samples;Min_cycle;Max_cycle;Signal;HPM_P1;HPM_P2
2022/02/17 00:02:04;;;;;;;44.38;26.10;;;;;;;-1.72;94.78;98929.91;4991982;28;20109;-63
2022/02/17 00:04:30;;;;;;;43.47;20.23;;;;;;;-1.66;94.87;98930.47;4943787;28;20038;-63
2022/02/17 00:06:56;;;;;;;43.15;22.40;;;;;;;-1.72;95.53;98919.31;4993893;28;20058;-63
2022/02/17 00:09:22;;;;;;;43.30;19.40;;;;;;;-1.70;95.29;98920.06;4993907;28;20050;-66
2022/02/17 00:11:47;;;;;;;42.72;22.15;;;;;;;-1.81;95.38;98895.16;4976667;28;20038;-64
2022/02/17 00:14:13;;;;;;;45.97;23.17;;;;;;;-1.70;95.59;98924.50;4992427;28;20050;-64
2022/02/17 00:16:39;;;;;;;43.17;21.65;;;;;;;-1.73;96.20;98909.63;4992136;28;20050;-64
2022/02/17 00:19:06;;;;;;;47.35;23.02;;;;;;;-1.68;96.28;98901.44;4991800;28;20525;-64
2022/02/17 00:21:31;;;;;;;42.92;19.38;;;;;;;-1.67;96.10;98899.63;4991518;28;20046;-64
2022/02/17 00:23:57;;;;;;;44.15;19.17;;;;;;;-1.70;96.40;98893.56;4976312;28;20058;-63
2022/02/17 00:26:23;;;;;;;47.20;22.20;;;;;;;-1.72;96.67;98887.50;4975825;28;20386;-65
2022/02/17 00:28:49;;;;;;;50.08;24.30;;;;;;;-1.68;96.29;98889.94;4975451;28;20163;-65
2022/02/17 00:31:15;;;;;;;46.88;21.70;;;;;;;-1.68;96.50;98880.22;4991692;28;20611;-64
2022/02/17 00:33:41;;;;;;;45.10;18.45;;;;;;;-1.79;96.60;98851.75;4991532;28;20050;-63
2022/02/17 00:36:08;;;;;;;47.53;22.20;;;;;;;-1.81;96.70;98836.88;4975920;28;20069;-64
2022/02/17 00:38:36;;;;;;;45.25;18.52;;;;;;;-1.63;96.93;98858.75;4993317;28;20129;-65
2022/02/17 00:41:03;;;;;;;46.42;23.08;;;;;;;-1.64;96.49;98855.25;4991417;28;20489;-64
2022/02/17 00:43:29;;;;;;;47.88;23.42;;;;;;;-1.65;96.87;98848.22;4959367;28;20042;-63
2022/02/17 00:45:55;;;;;;;46.55;22.60;;;;;;;-1.65;96.74;98836.78;4975413;28;20156;-63
2022/02/17 00:48:22;;;;;;;46.63;18.27;;;;;;;-1.60;96.38;98829.41;4991257;28;20129;-65
2022/02/17 00:50:49;;;;;;;37.72;15.65;;;;;;;-1.56;96.17;98817.66;4975340;28;20065;-64
2022/02/17 00:53:15;;;;;;;46.13;19.58;;;;;;;-1.54;95.76;98813.97;4991480;28;20042;-64
2022/02/17 00:55:41;;;;;;;45.13;18.77;;;;;;;-1.57;96.09;98808.00;4991111;28;20077;-63
2022/02/17 00:58:07;;;;;;;43.33;19.75;;;;;;;-1.55;95.54;98800.81;4991628;28;20057;-64
2022/02/17 01:00:34;;;;;;;49.53;19.58;;;;;;;-1.76;95.61;98766.75;4959288;28;20057;-65
2022/02/17 01:03:06;;;;;;;42.97;18.90;;;;;;;-1.60;95.74;98792.31;4959640;28;20050;-65
2022/02/17 01:05:32;;;;;;;47.85;21.00;;;;;;;-1.58;95.67;98790.41;4958871;28;20038;-64
2022/02/17 01:07:59;;;;;;;51.58;22.63;;;;;;;-1.63;95.91;98776.59;4991081;28;20078;-65
2022/02/17 01:10:26;;;;;;;50.00;19.48;;;;;;;-1.57;96.09;98781.50;4975400;28;20117;-65
2022/02/17 01:12:54;;;;;;;55.63;27.08;;;;;;;-1.91;95.96;98730.63;4991091;28;20091;-64
2022/02/17 01:15:21;;;;;;;57.38;28.05;;;;;;;-1.85;96.77;98730.25;4992660;28;20157;-64
2022/02/17 01:17:47;;;;;;;54.88;26.10;;;;;;;-1.72;96.69;98749.75;4993456;28;20080;-64
2022/02/17 01:20:13;;;;;;;48.15;19.80;;;;;;;-1.72;96.80;98740.91;4960169;28;20077;-64
2022/02/17 01:22:45;;;;;;;49.78;21.77;;;;;;;-1.68;96.64;98738.94;4991368;28;20050;-62
2022/02/17 01:25:13;;;;;;;47.58;22.13;;;;;;;-1.66;96.57;98739.69;5007110;28;20062;-64
2022/02/17 01:27:39;;;;;;;52.40;23.75;;;;;;;-1.72;96.60;98731.19;4975195;28;20116;-64
2022/02/17 01:30:05;;;;;;;46.78;20.42;;;;;;;-1.74;96.63;98717.19;4991980;28;20046;-66
2022/02/17 01:32:32;;;;;;;51.58;20.30;;;;;;;-1.70;96.71;98716.03;4974695;28;20069;-64
2022/02/17 01:34:58;;;;;;;47.30;21.92;;;;;;;-1.73;96.31;98724.19;4975197;28;20046;-63
2022/02/17 01:37:25;;;;;;;49.63;22.63;;;;;;;-1.85;96.70;98693.19;4990549;28;20413;-64
2022/02/17 01:39:53;;;;;;;45.45;19.63;;;;;;;-1.73;96.04;98713.59;4993269;28;20371;-64
2022/02/17 01:42:20;;;;;;;53.63;24.52;;;;;;;-1.77;96.68;98696.19;4976687;28;20050;-64
2022/02/17 01:44:50;;;;;;;52.63;20.13;;;;;;;-1.72;96.54;98699.41;4960842;28;20175;-69
2022/02/17 01:47:17;;;;;;;47.42;17.65;;;;;;;-1.67;96.10;98698.25;4991638;28;20065;-64
2022/02/17 01:49:44;;;;;;;46.35;17.58;;;;;;;-1.67;96.20;98695.63;4958291;28;20046;-64
2022/02/17 01:52:12;;;;;;;50.55;22.42;;;;;;;-1.65;96.58;98675.16;4990396;28;20049;-64
2022/02/17 01:54:40;;;;;;;50.65;23.95;;;;;;;-2.05;96.41;98633.53;5006529;28;20054;-65
2022/02/17 01:57:14;;;;;;;49.17;17.08;;;;;;;-1.72;97.03;98682.63;4990147;28;20042;-64
2022/02/17 01:59:44;;;;;;;43.05;17.25;;;;;;;-1.92;97.03;98641.53;4974594;28;20046;-63
2022/02/17 02:02:14;;;;;;;52.88;23.23;;;;;;;-1.76;96.82;98655.50;4989550;28;20125;-65
2022/02/17 02:04:40;;;;;;;52.47;21.48;;;;;;;-1.76;96.87;98666.09;4973860;28;20054;-64
2022/02/17 02:07:07;;;;;;;48.75;21.95;;;;;;;-1.74;96.95;98645.66;4973760;28;20090;-64
2022/02/17 02:09:33;;;;;;;44.70;18.45;;;;;;;-1.75;97.02;98651.06;5006268;28;20054;-64
2022/02/17 02:12:08;;;;;;;46.05;24.58;;;;;;;-1.88;96.49;98635.09;4959139;28;20088;-65
2022/02/17 02:14:36;;;;;;;50.20;19.38;;;;;;;-1.72;96.94;98667.63;4958843;28;20038;-65
2022/02/17 02:17:04;;;;;;;52.35;28.85;;;;;;;-1.76;97.04;98666.09;4975034;28;20061;-65
2022/02/17 02:19:30;;;;;;;54.17;26.33;;;;;;;-1.77;97.55;98674.16;4959505;28;20108;-63
2022/02/17 02:21:58;;;;;;;53.75;28.08;;;;;;;-1.78;97.76;98652.09;4990809;28;20050;-64
2022/02/17 02:24:24;;;;;;;55.22;27.35;;;;;;;-1.79;97.19;98676.91;4989570;28;20053;-65
2022/02/17 02:26:50;;;;;;;50.92;27.05;;;;;;;-1.80;98.16;98651.34;4957507;28;20050;-64
2022/02/17 02:29:23;;;;;;;48.22;23.08;;;;;;;-1.86;98.34;98638.50;4991676;28;20121;-65
2022/02/17 02:31:49;;;;;;;49.35;27.67;;;;;;;-1.83;98.20;98643.63;4959036;28;20140;-68
2022/02/17 02:34:14;;;;;;;47.83;22.25;;;;;;;-2.03;98.81;98591.06;4974463;28;20053;-64
2022/02/17 02:36:40;;;;;;;43.75;18.35;;;;;;;-1.83;98.71;98630.38;4973826;28;20050;-65
2022/02/17 02:39:06;;;;;;;52.28;25.00;;;;;;;-1.86;98.66;98622.63;4957080;28;20129;-64
2022/02/17 02:41:53;;;;;;;46.03;20.70;;;;;;;-1.83;99.26;98610.97;4989451;28;20146;-65
2022/02/17 02:44:19;;;;;;;50.30;24.77;;;;;;;-1.84;99.24;98614.56;4989239;28;20133;-64
2022/02/17 02:46:51;;;;;;;47.90;23.25;;;;;;;-1.83;99.86;98608.31;4957563;28;20510;-63
2022/02/17 02:49:18;;;;;;;51.63;27.40;;;;;;;-1.84;100.00;98610.09;4988971;28;20086;-65
2022/02/17 02:51:44;;;;;;;48.92;25.38;;;;;;;-1.82;99.92;98618.81;4973018;28;20050;-64
2022/02/17 02:54:11;;;;;;;48.50;24.98;;;;;;;-1.82;100.00;98623.28;4957300;28;20136;-65
2022/02/17 02:56:39;;;;;;;44.92;21.30;;;;;;;-1.80;100.00;98616.91;4941670;28;20046;-64
2022/02/17 02:59:05;;;;;;;51.67;26.45;;;;;;;-1.83;100.00;98627.72;4989318;28;20045;-63
2022/02/17 03:01:32;;;;;;;51.50;24.48;;;;;;;-1.88;100.00;98598.03;4973286;28;20137;-64
2022/02/17 03:03:59;;;;;;;46.28;23.75;;;;;;;-1.78;100.00;98609.72;4973160;28;20117;-63
2022/02/17 03:06:29;;;;;;;48.28;25.23;;;;;;;-1.92;100.00;98583.28;4973479;28;20111;-63
2022/02/17 03:08:56;;;;;;;52.75;24.58;;;;;;;-1.79;100.00;98592.13;5005185;28;20038;-65
2022/02/17 03:11:27;;;;;;;48.60;24.17;;;;;;;-1.91;100.00;98570.88;4989279;28;20127;-65
2022/02/17 03:13:53;;;;;;;49.78;25.85;;;;;;;-1.70;100.00;98596.81;4992850;28;20042;-63
2022/02/17 03:16:19;;;;;;;44.30;19.92;;;;;;;-1.84;100.00;98573.03;4961243;28;20054;-63
2022/02/17 03:18:45;;;;;;;48.05;21.63;;;;;;;-1.72;100.00;98593.44;4992707;28;20053;-64
2022/02/17 03:21:14;;;;;;;47.65;20.15;;;;;;;-1.66;100.00;98591.31;4976390;28;20050;-64
2022/02/17 03:23:41;;;;;;;46.67;20.10;;;;;;;-1.68;100.00;98575.53;4977220;28;20103;-63
2022/02/17 03:26:15;;;;;;;50.20;23.00;;;;;;;-1.68;100.00;98557.00;4947265;28;20056;-64
2022/02/17 03:28:43;;;;;;;47.53;23.83;;;;;;;-1.73;100.00;98541.38;4993166;28;20125;-64
2022/02/17 03:31:10;;;;;;;49.08;23.95;;;;;;;-1.68;100.00;98534.94;4977108;28;20050;-65
2022/02/17 03:33:50;;;;;;;46.05;19.40;;;;;;;-1.65;100.00;98524.13;4978720;28;20076;-65
2022/02/17 03:36:21;;;;;;;48.70;20.10;;;;;;;-1.70;100.00;98514.69;4961136;28;20050;-64
2022/02/17 03:38:49;;;;;;;46.15;21.23;;;;;;;-1.68;100.00;98522.56;5008862;28;20053;-64
2022/02/17 03:41:15;;;;;;;46.78;22.30;;;;;;;-1.62;100.00;98534.53;4976398;28;20050;-64
2022/02/17 03:43:41;;;;;;;47.53;22.05;;;;;;;-1.59;100.00;98518.44;4976108;28;20101;-64
2022/02/17 03:46:08;;;;;;;41.90;19.55;;;;;;;-1.58;100.00;98517.47;4976908;28;20171;-65
2022/02/17 03:48:34;;;;;;;45.97;19.65;;;;;;;-1.63;100.00;98485.16;4992763;28;20087;-65
2022/02/17 03:51:07;;;;;;;41.17;20.25;;;;;;;-1.52;100.00;98488.75;4962668;28;20410;-65
2022/02/17 03:53:34;;;;;;;40.70;18.65;;;;;;;-1.54;100.00;98479.22;4977573;28;20141;-64
2022/02/17 03:56:03;;;;;;;37.75;18.42;;;;;;;-1.49;100.00;98474.47;4960617;28;20046;-63
2022/02/17 03:59:02;;;;;;;42.80;19.40;;;;;;;-1.45;100.00;98470.66;4985026;28;20196;-67
2022/02/17 04:01:32;;;;;;;38.80;18.75;;;;;;;-1.41;100.00;98464.19;4977359;28;20070;-67
2022/02/17 04:03:59;;;;;;;40.95;19.77;;;;;;;-1.38;100.00;98466.63;4989437;28;20068;-65
2022/02/17 04:06:25;;;;;;;40.38;18.98;;;;;;;-1.57;100.00;98431.72;4958679;28;20503;-65
2022/02/17 04:08:51;;;;;;;38.97;19.95;;;;;;;-1.49;100.00;98445.31;4970219;28;20043;-65
2022/02/17 04:11:18;;;;;;;36.42;15.52;;;;;;;-1.33;100.00;98469.78;4968843;28;20086;-65
2022/02/17 04:13:46;;;;;;;34.85;16.30;;;;;;;-1.33;100.00;98469.78;4986844;28;20178;-65
2022/02/17 04:16:12;;;;;;;37.80;17.95;;;;;;;-1.29;100.00;98458.00;4948623;28;20057;-66
2022/02/17 04:18:46;;;;;;;33.53;15.52;;;;;;;-1.33;100.00;98447.75;4946294;28;20038;-67
2022/02/17 04:21:21;;;;;;;30.75;13.50;;;;;;;-1.23;100.00;98456.75;4973756;28;20564;-64
2022/02/17 04:24:05;;;;;;;34.30;17.25;;;;;;;-1.24;100.00;98441.81;4946860;28;20134;-65
2022/02/17 04:26:35;;;;;;;34.33;15.63;;;;;;;-1.17;100.00;98439.56;4970010;28;20078;-69
2022/02/17 04:29:20;;;;;;;36.67;14.80;;;;;;;-1.19;100.00;98436.19;4962461;28;20039;-64
2022/02/17 04:31:53;;;;;;;32.85;13.25;;;;;;;-1.21;100.00;98407.09;4955677;28;20141;-64
2022/02/17 04:34:21;;;;;;;35.13;16.73;;;;;;;-1.13;100.00;98398.59;4971775;28;20109;-65
2022/02/17 04:36:47;;;;;;;33.75;15.45;;;;;;;-1.11;99.63;98399.34;4971986;28;20055;-68
2022/02/17 04:39:13;;;;;;;32.85;16.00;;;;;;;-1.16;99.30;98377.63;4954505;28;20078;-64
2022/02/17 04:44:29;;;;;;;33.83;16.35;;;;;;;-1.04;98.63;98404.09;4958743;28;20141;-64
2022/02/17 04:46:59;;;;;;;31.30;14.60;;;;;;;-1.03;98.53;98389.03;4973811;28;20141;-64
2022/02/17 04:49:26;;;;;;;31.58;16.35;;;;;;;-1.03;98.58;98394.34;4974263;28;20043;-64
2022/02/17 04:51:52;;;;;;;30.05;15.98;;;;;;;-0.99;97.75;98385.22;4956721;28;20056;-65
2022/02/17 04:54:19;;;;;;;28.17;14.52;;;;;;;-1.02;98.18;98361.59;4972735;28;20046;-65
2022/02/17 04:56:46;;;;;;;29.85;13.63;;;;;;;-0.94;97.34;98372.47;4988286;28;20134;-65
2022/02/17 04:59:13;;;;;;;29.40;15.23;;;;;;;-0.90;97.17;98373.94;4971725;28;20046;-64
2022/02/17 05:01:48;;;;;;;28.75;11.13;;;;;;;-0.93;96.82;98358.25;4973137;28;20061;-64
2022/02/17 05:04:24;;;;;;;30.10;14.23;;;;;;;-0.90;96.53;98352.72;4955714;28;20053;-64
2022/02/17 05:06:58;;;;;;;26.33;10.75;;;;;;;-0.87;96.38;98359.63;4971533;28;20062;-64
2022/02/17 05:09:24;;;;;;;28.08;14.68;;;;;;;-0.84;96.21;98346.13;4972706;28;20050;-65
2022/02/17 05:11:51;;;;;;;23.83;9.75;;;;;;;-0.93;95.75;98310.50;4956499;28;20558;-65
2022/02/17 05:14:22;;;;;;;26.60;13.18;;;;;;;-0.93;94.79;98310.50;4971632;28;20404;-65
2022/02/17 05:17:00;;;;;;;24.20;12.02;;;;;;;-0.79;94.68;98334.22;4955542;28;20051;-66
2022/02/17 05:19:30;;;;;;;24.10;13.18;;;;;;;-0.77;94.55;98337.63;4972379;28;20039;-64
2022/02/17 05:22:14;;;;;;;24.27;12.32;;;;;;;-0.78;94.34;98325.28;4972580;28;20054;-65
2022/02/17 05:25:04;;;;;;;24.65;13.20;;;;;;;-0.77;93.93;98311.09;4987563;28;20139;-64
2022/02/17 05:27:30;;;;;;;24.45;11.00;;;;;;;-0.73;93.30;98320.50;4954685;28;20043;-64
2022/02/17 05:30:16;;;;;;;20.20;10.10;;;;;;;-0.70;93.47;98321.22;4970839;28;20089;-65
2022/02/17 05:33:18;;;;;;;25.50;12.13;;;;;;;-0.71;93.02;98330.16;4989092;28;20525;-66
2022/02/17 05:36:03;;;;;;;19.98;9.93;;;;;;;-0.70;92.84;98326.53;4970838;28;20065;-65
2022/02/17 05:38:58;;;;;;;24.83;12.43;;;;;;;-0.69;93.00;98317.63;4969665;28;20102;-65
2022/02/17 05:41:59;;;;;;;21.67;11.77;;;;;;;-0.66;92.33;98317.38;4989330;28;20053;-64
2022/02/17 05:44:26;;;;;;;22.17;11.32;;;;;;;-0.66;92.42;98318.22;4970452;28;20498;-65
2022/02/17 05:46:53;;;;;;;21.17;11.15;;;;;;;-0.66;92.31;98309.44;4955414;28;20084;-65
2022/02/17 05:49:19;;;;;;;22.08;11.85;;;;;;;-0.69;92.84;98307.03;4955005;28;20491;-65
2022/02/17 05:51:45;;;;;;;20.20;8.57;;;;;;;-0.64;91.73;98299.56;4987445;28;20066;-65
2022/02/17 05:54:11;;;;;;;21.27;10.63;;;;;;;-0.62;91.97;98289.66;4955531;28;20055;-65
2022/02/17 05:56:41;;;;;;;21.25;11.65;;;;;;;-0.63;92.11;98267.59;4987635;28;20070;-65
2022/02/17 05:59:07;;;;;;;20.70;11.60;;;;;;;-0.79;92.25;98244.03;4954931;28;20059;-65
2022/02/17 06:01:33;;;;;;;20.38;10.55;;;;;;;-0.59;91.61;98260.25;4955135;28;20426;-64
2022/02/17 06:03:59;;;;;;;19.10;8.65;;;;;;;-0.57;91.35;98253.03;4954492;28;20045;-64
2022/02/17 06:06:24;;;;;;;20.42;10.88;;;;;;;-0.57;91.37;98237.09;4970929;28;20097;-65
2022/02/17 06:08:50;;;;;;;17.52;9.25;;;;;;;-0.57;91.79;98237.09;4954824;28;20039;-64
2022/02/17 06:11:16;;;;;;;19.98;8.65;;;;;;;-0.58;91.73;98230.94;4970455;28;20478;-65
2022/02/17 06:13:43;;;;;;;20.92;11.40;;;;;;;-0.50;91.55;98233.03;4970551;28;20042;-65
2022/02/17 06:16:09;;;;;;;20.65;12.45;;;;;;;-0.59;91.55;98223.94;4954454;28;20054;-64
2022/02/17 06:18:34;;;;;;;21.38;9.93;;;;;;;-0.57;91.60;98242.41;4954655;28;20486;-65
2022/02/17 06:21:00;;;;;;;20.90;10.52;;;;;;;-0.54;91.84;98242.19;4954514;28;20046;-64
2022/02/17 06:23:26;;;;;;;21.08;9.55;;;;;;;-0.61;92.42;98222.38;4970791;28;20076;-65
2022/02/17 06:25:53;;;;;;;19.48;10.27;;;;;;;-0.49;92.39;98253.28;4970154;28;20047;-64
2022/02/17 06:28:19;;;;;;;20.58;10.75;;;;;;;-0.53;92.32;98235.91;4954294;28;20046;-65
2022/02/17 06:30:47;;;;;;;17.83;8.65;;;;;;;-0.52;92.81;98232.28;4954480;28;20454;-65
2022/02/17 06:33:13;;;;;;;18.52;11.90;;;;;;;-0.54;93.00;98215.63;4970038;28;20073;-65
2022/02/17 06:35:39;;;;;;;22.50;11.02;;;;;;;-0.52;92.86;98208.38;4954216;28;20510;-65
2022/02/17 06:38:06;;;;;;;20.42;11.35;;;;;;;-0.46;92.52;98213.22;4954405;28;20077;-65
2022/02/17 06:40:33;;;;;;;19.20;10.70;;;;;;;-0.47;92.44;98214.22;4986870;28;20467;-65
2022/02/17 06:43:19;;;;;;;23.40;10.52;;;;;;;-0.43;93.11;98213.00;4987588;28;20122;-65
2022/02/17 06:45:46;;;;;;;20.05;10.30;;;;;;;-0.44;92.69;98205.97;4971212;28;20414;-66
2022/02/17 06:48:12;;;;;;;21.08;12.50;;;;;;;-0.45;92.79;98182.22;4954300;28;20043;-65
2022/02/17 06:50:38;;;;;;;21.83;11.45;;;;;;;-0.36;93.06;98189.50;4954900;28;20149;-64
2022/02/17 06:53:06;;;;;;;23.23;11.23;;;;;;;-0.52;91.91;98142.03;4971221;28;20140;-65
2022/02/17 06:55:33;;;;;;;20.13;13.15;;;;;;;-0.34;92.45;98167.16;4954794;28;20054;-65
2022/02/17 06:58:01;;;;;;;21.92;9.27;;;;;;;-0.28;92.19;98169.34;4986352;28;20134;-65
2022/02/17 07:00:27;;;;;;;18.88;10.10;;;;;;;-0.33;92.50;98176.81;4986518;28;20050;-64
2022/02/17 07:02:54;;;;;;;19.60;11.18;;;;;;;-0.36;92.42;98163.78;4938291;28;20073;-65
2022/02/17 07:05:22;;;;;;;20.70;9.77;;;;;;;-0.42;92.90;98139.53;4969957;28;20062;-65
2022/02/17 07:07:48;;;;;;;25.80;13.40;;;;;;;-0.26;92.02;98156.78;4969877;28;20043;-65
2022/02/17 07:10:14;;;;;;;20.67;11.25;;;;;;;-0.28;92.25;98153.41;4953490;28;20118;-65
2022/02/17 07:12:43;;;;;;;21.70;11.45;;;;;;;-0.20;92.52;98133.38;4954062;28;20043;-65
2022/02/17 07:15:11;;;;;;;19.60;11.75;;;;;;;-0.18;92.32;98142.91;4954210;28;20498;-65
2022/02/17 07:17:37;;;;;;;22.70;10.90;;;;;;;-0.12;92.18;98122.97;4953342;28;20050;-65
2022/02/17 07:20:03;;;;;;;20.80;11.80;;;;;;;-0.14;92.17;98138.22;4937720;28;20414;-65
2022/02/17 07:22:29;;;;;;;21.17;11.23;;;;;;;-0.09;92.54;98104.16;4954067;28;20132;-65
2022/02/17 07:24:56;;;;;;;22.20;9.93;;;;;;;-0.07;91.82;98108.38;4953889;28;20498;-68
2022/02/17 07:27:22;;;;;;;20.17;12.40;;;;;;;-0.12;92.32;98093.75;4954054;28;20105;-65
2022/02/17 07:29:48;;;;;;;20.25;12.50;;;;;;;-0.05;92.52;98093.16;4969678;28;20515;-65
2022/02/17 07:32:15;;;;;;;21.35;12.13;;;;;;;-0.05;92.20;98089.66;4937579;28;20081;-65
2022/02/17 07:34:41;;;;;;;24.60;12.18;;;;;;;0.00;92.60;98076.88;4969551;28;20379;-65
2022/02/17 07:37:07;;;;;;;23.17;11.10;;;;;;;0.07;92.29;98078.03;4953618;28;20042;-65
2022/02/17 07:39:34;;;;;;;22.00;13.48;;;;;;;0.14;92.19;98084.53;4969538;28;20061;-65
2022/02/17 07:42:00;;;;;;;21.10;10.30;;;;;;;0.16;92.99;98064.00;4937927;28;20404;-65
2022/02/17 07:44:26;;;;;;;22.45;11.77;;;;;;;0.21;91.96;98053.84;4922230;28;20051;-65
2022/02/17 07:46:53;;;;;;;22.95;12.00;;;;;;;0.27;92.51;98047.19;4938015;28;20046;-65
2022/02/17 07:49:19;;;;;;;24.17;12.32;;;;;;;0.27;92.71;98038.38;4953608;28;20049;-65
2022/02/17 07:51:45;;;;;;;23.95;11.95;;;;;;;0.33;92.67;98045.81;4953862;28;20051;-65
2022/02/17 07:54:11;;;;;;;25.23;13.68;;;;;;;0.31;93.52;98043.31;4969513;28;20039;-65
2022/02/17 07:56:37;;;;;;;23.63;12.93;;;;;;;0.37;93.40;98047.28;4953254;28;20403;-65
2022/02/17 07:59:05;;;;;;;25.25;12.98;;;;;;;0.36;93.82;98050.88;4954288;28;20042;-65
2022/02/17 08:01:30;;;;;;;24.55;12.30;;;;;;;0.44;93.85;98045.81;4989614;28;20055;-65
2022/02/17 08:03:56;;;;;;;24.83;12.35;;;;;;;0.43;93.63;98041.44;4956371;28;20094;-65
2022/02/17 08:06:22;;;;;;;26.00;14.65;;;;;;;0.48;94.04;98047.22;4956906;28;20121;-64
2022/02/17 08:08:51;;;;;;;23.48;13.90;;;;;;;0.47;93.86;98049.03;4972747;28;20091;-65
2022/02/17 08:11:17;;;;;;;26.83;12.82;;;;;;;0.52;93.45;98030.06;4956815;28;20128;-64
2022/02/17 08:13:43;;;;;;;27.27;14.85;;;;;;;0.52;93.68;98014.09;4956783;28;20043;-66
2022/02/17 08:16:10;;;;;;;20.95;8.82;;;;;;;0.68;93.64;98014.47;4974259;28;20051;-64
2022/02/17 08:18:37;;;;;;;25.98;14.98;;;;;;;0.72;93.16;98009.75;4989405;28;20094;-65
2022/02/17 08:21:04;;;;;;;26.65;12.82;;;;;;;0.78;93.00;98035.84;4973278;28;20043;-65
2022/02/17 08:23:32;;;;;;;25.60;12.05;;;;;;;0.89;92.59;98021.63;4956876;28;20141;-65
2022/02/17 08:26:00;;;;;;;23.83;13.40;;;;;;;0.86;92.15;98016.56;4972539;28;20091;-65
2022/02/17 08:28:26;;;;;;;25.77;13.40;;;;;;;0.87;92.75;98019.09;4956721;28;20046;-65
2022/02/17 08:30:52;;;;;;;25.13;11.98;;;;;;;0.88;92.86;98019.94;4988767;28;20503;-65
2022/02/17 08:33:18;;;;;;;26.90;14.10;;;;;;;0.91;92.62;98017.84;4972336;28;20066;-65
2022/02/17 08:35:44;;;;;;;24.05;12.68;;;;;;;0.97;92.34;98008.50;4940308;28;20046;-65
2022/02/17 08:38:10;;;;;;;25.25;13.98;;;;;;;0.98;92.73;98004.84;4955793;28;20046;-65
2022/02/17 08:40:37;;;;;;;23.48;12.73;;;;;;;1.05;92.53;98006.03;4972401;28;20419;-65
2022/02/17 08:43:09;;;;;;;28.60;12.50;;;;;;;1.08;92.45;98002.25;4988376;28;20402;-65
2022/02/17 08:45:40;;;;;;;27.25;14.07;;;;;;;1.05;92.73;97990.06;4971921;28;20069;-65
2022/02/17 08:48:07;;;;;;;22.30;11.63;;;;;;;1.09;92.45;97980.00;4972536;28;20042;-65
2022/02/17 08:50:34;;;;;;;23.10;10.98;;;;;;;1.16;92.20;97981.97;4972342;28;20141;-65
2022/02/17 08:53:00;;;;;;;21.27;10.18;;;;;;;1.13;92.83;97982.28;4956107;28;20047;-69
2022/02/17 08:55:26;;;;;;;25.60;12.93;;;;;;;1.15;92.80;97980.31;4972143;28;20070;-65
2022/02/17 08:57:53;;;;;;;22.45;10.85;;;;;;;1.24;92.31;97977.81;4956215;28;20051;-65
2022/02/17 09:00:20;;;;;;;26.90;11.80;;;;;;;1.24;92.18;97980.47;4939912;28;20145;-65
2022/02/17 09:02:45;;;;;;;23.80;12.32;;;;;;;1.33;92.11;97988.50;4939939;28;20038;-65
2022/02/17 09:05:12;;;;;;;23.08;12.65;;;;;;;1.40;91.63;97989.66;4955698;28;20057;-65
2022/02/17 09:07:37;;;;;;;21.35;10.77;;;;;;;1.44;91.70;97984.91;4939539;28;20047;-65
2022/02/17 09:10:05;;;;;;;19.40;10.07;;;;;;;1.42;91.18;97962.88;4955048;28;20112;-65
2022/02/17 09:12:32;;;;;;;23.63;11.07;;;;;;;1.47;91.49;97955.34;4971557;28;20513;-65
2022/02/17 09:14:58;;;;;;;22.70;10.93;;;;;;;1.47;91.02;97951.84;4955214;28;20054;-65
2022/02/17 09:17:24;;;;;;;22.63;13.15;;;;;;;1.53;91.10;97949.47;4971684;28;20046;-68
2022/02/17 09:19:50;;;;;;;19.85;10.98;;;;;;;1.56;91.57;97946.53;4955642;28;20051;-65
2022/02/17 09:22:19;;;;;;;22.75;12.15;;;;;;;1.59;90.95;97935.63;4955803;28;20050;-70
2022/02/17 09:24:45;;;;;;;24.42;12.30;;;;;;;1.63;91.05;97942.34;4971469;28;20179;-65
2022/02/17 09:27:11;;;;;;;23.15;10.68;;;;;;;1.68;90.80;97918.81;4971465;28;20549;-65
2022/02/17 09:29:37;;;;;;;20.30;13.15;;;;;;;1.66;90.87;97912.78;4955501;28;20398;-65
2022/02/17 09:32:03;;;;;;;22.20;12.15;;;;;;;1.65;90.81;97903.13;4955184;28;20170;-65
2022/02/17 09:34:31;;;;;;;22.42;11.13;;;;;;;1.78;90.64;97909.97;4987446;28;20654;-65
2022/02/17 09:36:57;;;;;;;23.58;13.77;;;;;;;1.72;90.46;97891.88;4971958;28;20179;-65
2022/02/17 09:39:25;;;;;;;24.35;14.65;;;;;;;1.72;90.39;97881.22;4971600;28;20089;-65
2022/02/17 09:41:51;;;;;;;22.70;11.85;;;;;;;1.78;90.26;97880.69;4955050;28;20054;-65
2022/02/17 09:44:20;;;;;;;25.40;14.02;;;;;;;1.81;90.35;97880.41;4954922;28;20042;-65
2022/02/17 09:46:47;;;;;;;25.95;12.70;;;;;;;1.88;89.78;97869.03;4970880;28;20502;-66
2022/02/17 09:49:19;;;;;;;24.75;14.30;;;;;;;1.86;89.51;97855.00;4971301;28;20045;-65
2022/02/17 09:51:46;;;;;;;21.33;9.77;;;;;;;2.01;89.48;97867.91;4971219;28;20057;-67
2022/02/17 09:54:13;;;;;;;27.15;14.50;;;;;;;1.92;88.99;97849.13;4971091;28;20051;-65
2022/02/17 09:56:41;;;;;;;25.05;13.15;;;;;;;1.96;89.08;97851.50;4938883;28;20106;-65
2022/02/17 09:59:07;;;;;;;28.10;13.77;;;;;;;2.01;88.84;97825.28;4970932;28;20041;-66
2022/02/17 10:01:33;;;;;;;21.65;10.18;;;;;;;2.08;88.45;97832.56;4954936;28;20050;-66
2022/02/17 10:04:21;;;;;;;24.80;12.40;;;;;;;2.11;88.28;97853.59;4939694;28;20061;-66
2022/02/17 10:06:56;;;;;;;21.73;13.32;;;;;;;2.11;88.00;97824.28;4971375;28;20182;-66
2022/02/17 10:09:33;;;;;;;24.95;10.55;;;;;;;2.04;87.52;97801.84;4971407;28;20050;-66
2022/02/17 10:11:59;;;;;;;25.13;14.48;;;;;;;2.16;87.43;97822.03;4939516;28;20050;-65
2022/02/17 10:14:25;;;;;;;22.00;13.85;;;;;;;2.16;87.57;97814.03;4954870;28;20093;-65
2022/02/17 10:17:11;;;;;;;24.33;13.85;;;;;;;2.22;87.18;97811.78;4971069;28;20050;-65
2022/02/17 10:19:39;;;;;;;23.92;13.13;;;;;;;2.23;87.00;97826.78;4954637;28;20042;-65
2022/02/17 10:22:08;;;;;;;22.38;9.75;;;;;;;2.32;86.70;97818.75;4986324;28;20042;-65
2022/02/17 10:24:43;;;;;;;24.08;13.45;;;;;;;2.28;86.40;97800.53;4955005;28;20402;-66
2022/02/17 10:27:15;;;;;;;23.25;12.52;;;;;;;2.39;85.91;97811.88;4954516;28;20051;-66
2022/02/17 10:30:07;;;;;;;24.23;10.88;;;;;;;2.29;85.56;97780.88;4954356;28;20069;-66
2022/02/17 10:32:34;;;;;;;22.45;13.00;;;;;;;2.34;85.90;97773.28;4954141;28;20062;-65
2022/02/17 10:35:12;;;;;;;21.55;9.93;;;;;;;2.47;84.73;97773.81;4970152;28;20435;-65
2022/02/17 10:37:42;;;;;;;22.35;10.27;;;;;;;2.63;84.53;97758.03;4986340;28;20109;-65
2022/02/17 10:40:26;;;;;;;24.80;14.63;;;;;;;2.58;84.46;97746.94;4953953;28;20499;-66
2022/02/17 10:43:12;;;;;;;23.00;11.60;;;;;;;2.57;84.31;97745.25;4970158;28;20113;-65
2022/02/17 10:45:40;;;;;;;25.15;14.88;;;;;;;2.49;84.38;97742.50;4954298;28;20137;-65
2022/02/17 10:48:17;;;;;;;25.40;14.95;;;;;;;2.40;84.34;97708.72;4953927;28;20054;-65
2022/02/17 10:50:46;;;;;;;25.52;12.70;;;;;;;2.55;84.39;97720.56;4954498;28;20050;-66
2022/02/17 10:53:16;;;;;;;30.70;14.23;;;;;;;2.60;84.42;97723.63;4970767;28;20225;-66
2022/02/17 10:55:59;;;;;;;26.70;14.55;;;;;;;2.60;84.09;97712.97;4954735;28;20043;-66
2022/02/17 10:58:28;;;;;;;28.67;14.57;;;;;;;2.69;84.07;97694.38;4970148;28;20097;-65
2022/02/17 11:00:59;;;;;;;24.77;13.27;;;;;;;2.54;84.15;97686.88;4954290;28;20458;-66
2022/02/17 11:03:26;;;;;;;24.98;11.93;;;;;;;2.66;84.07;97680.34;4953960;28;20046;-65
2022/02/17 11:05:53;;;;;;;26.83;14.15;;;;;;;2.71;83.28;97663.06;4970200;28;20046;-65
2022/02/17 11:08:20;;;;;;;27.80;15.25;;;;;;;2.64;83.84;97666.31;4953787;28;20423;-66
2022/02/17 11:10:46;;;;;;;28.35;17.00;;;;;;;2.58;83.89;97660.75;4970971;28;20047;-66
2022/02/17 11:13:20;;;;;;;24.90;13.52;;;;;;;2.75;83.47;97651.94;4971689;28;20145;-66
2022/02/17 11:15:48;;;;;;;26.63;16.33;;;;;;;2.58;83.60;97634.91;4971305;28;20062;-66
2022/02/17 11:18:19;;;;;;;30.13;17.58;;;;;;;2.48;83.42;97610.13;4954877;28;20051;-65
2022/02/17 11:20:49;;;;;;;30.05;18.10;;;;;;;2.58;83.69;97650.91;4972362;28;20043;-66
2022/02/17 11:23:19;;;;;;;26.38;11.75;;;;;;;2.60;83.87;97643.63;4971128;28;20059;-67
2022/02/17 11:25:47;;;;;;;28.75;16.88;;;;;;;2.46;83.79;97628.13;4955602;28;20101;-66
2022/02/17 11:28:15;;;;;;;26.77;15.88;;;;;;;2.44;84.05;97635.41;4955028;28;20139;-66
2022/02/17 11:30:55;;;;;;;27.42;13.73;;;;;;;2.41;84.48;97639.25;4955074;28;20039;-66